Latest Coastal Weather Observations for Ulladulla

IDN60701

Issued at 6:31 pm EST Wednesday 2 September 2015 (issued every 10 minutes, with the page automatically refreshed every 10 minutes)

About coastal observations | Map of coastal stations | Coastal observations for NSW | Marine services | Other Formats
Station Details ID: 069138 Name: ULLADULLA AWS Lat: -35.36 Lon: 150.48 Height: 35.7 m
Data from the previous 72 hours. | See also: Recent months at Ulladulla
Date/Time
EST
Temp

°C
Wind Pressure Rain
since 9am
mm
Weather Cloud Vis
km
Sea
Height
m
Swell
Dir
 
Speed
knots
Gust
knots
hPa Trend Height
m
Period
s
Dir
02/06:30pm 15.0 N 7 11 1010.0 - 0.0 - - - - - - -
02/06:00pm 15.4 N 7 11 1010.0 - 0.0 - - - - - - -
02/05:30pm 15.6 NNE 4 14 1010.1 - 0.0 - - - - - - -
02/05:00pm 15.9 N 5 11 1010.3 - 0.0 - - - - - - -
02/04:30pm 16.1 NNE 6 11 1010.4 - 0.0 - - - - - - -
02/04:00pm 16.3 NE 11 18 1010.4 - 0.0 - - - - - - -
02/03:30pm 16.5 NE 14 20 1010.6 - 0.0 - - - - - - -
02/03:00pm 16.7 NE 15 19 1010.6 - 0.0 - - - - - - -
02/02:30pm 16.9 NNE 13 16 1011.0 - 0.0 - - - - - - -
02/02:00pm 16.7 NNE 9 13 1011.3 - 0.0 - - - - - - -
02/01:30pm 17.1 NE 6 10 1011.8 - 0.0 - - - - - - -
02/01:00pm 16.1 NE 5 9 1012.5 - 0.0 - - - - - - -
02/12:30pm 15.8 NNE 5 8 1013.3 - 0.0 - - - - - - -
02/12:00pm 15.3 NNE 5 8 1014.0 - 0.0 - - - - - - -
02/11:30am 15.5 NNE 4 6 1014.7 - 0.0 - - - - - - -
02/11:00am 14.7 NNE 4 6 1015.4 - 0.0 - - - - - - -
02/10:30am 14.2 NNE 4 5 1015.7 - 0.0 - - - - - - -
02/10:00am 13.7 NNE 3 4 1016.1 - 0.0 - - - - - - -
02/09:30am 13.3 NNE 3 5 1016.2 - 0.0 - - - - - - -
02/09:00am 13.7 SSE 2 2 1016.4 - 0.0 - - - - - - -
02/08:30am 13.7 CALM 0 0 1016.4 - 0.0 - - - - - - -
02/08:00am 11.4 CALM 0 1 1016.3 - 0.0 - - - - - - -
02/07:30am 11.0 NW 2 3 1016.4 - 0.0 - - - - - - -
02/07:00am 8.9 CALM 0 1 1016.1 - 0.0 - - - - - - -
02/06:30am 8.1 NW 4 5 1016.2 - 0.0 - - - - - - -
02/06:00am 7.8 NW 1 3 1015.9 - 0.0 - - - - - - -
02/05:30am 8.6 NNW 1 3 1015.6 - 0.0 - - - - - - -
02/05:00am 9.1 NW 1 2 1015.7 - 0.0 - - - - - - -
02/04:30am 9.1 NW 3 4 1015.7 - 0.0 - - - - - - -
02/04:00am 9.6 NW 4 6 1015.7 - 0.0 - - - - - - -
02/03:30am 9.9 NW 5 8 1015.7 - 0.0 - - - - - - -
02/03:00am 9.0 W 4 6 1015.4 - 0.0 - - - - - - -
02/02:30am 8.7 NW 4 5 1015.8 - 0.0 - - - - - - -
02/02:00am 9.3 NW 4 5 1016.1 - 0.0 - - - - - - -
02/01:30am 9.9 NW 5 7 1016.2 - 0.0 - - - - - - -
02/01:00am 10.7 WNW 5 8 1016.2 - 0.0 - - - - - - -
02/12:30am 10.9 WNW 5 11 1016.1 - 0.0 - - - - - - -
02/12:00am 11.3 WNW 5 7 1016.0 - 0.0 - - - - - - -
 
Date/Time
EST
Temp

°C
Wind Pressure Rain
since 9am
mm
Weather Cloud Vis
km
Sea
Height
m
Swell
Dir
 
Speed
knots
Gust
knots
hPa Trend Height
m
Period
s
Dir
01/11:30pm 10.6 W 4 6 1015.9 - 0.0 - - - - - - -
01/11:00pm 10.7 WNW 3 4 1015.9 - 0.0 - - - - - - -
01/10:30pm 10.8 WNW 3 5 1015.8 - 0.0 - - - - - - -
01/10:00pm 11.3 WNW 4 5 1015.8 - 0.0 - - - - - - -
01/09:30pm 11.2 NW 4 5 1015.7 - 0.0 - - - - - - -
01/09:00pm 11.3 NW 4 5 1015.7 - 0.0 - - - - - - -
01/08:30pm 11.2 NW 4 5 1015.4 - 0.0 - - - - - - -
01/08:00pm 10.2 WNW 3 4 1015.2 - 0.0 - - - - - - -
01/07:30pm 10.7 W 3 4 1015.0 - 0.0 - - - - - - -
01/07:00pm 10.9 SW 1 2 1014.8 - 0.0 - - - - - - -
01/06:30pm 11.5 CALM 0 0 1014.4 - 0.0 - - - - - - -
01/06:00pm 12.1 CALM 0 2 1014.1 - 0.0 - - - - - - -
01/05:30pm 12.9 SE 1 3 1013.9 - 0.0 - - - - - - -
01/05:00pm 13.8 SE 3 5 1013.5 - 0.0 - - - - - - -
01/04:30pm 14.5 SSE 3 7 1013.4 - 0.0 - - - - - - -
01/04:00pm 15.1 SSE 4 8 1013.3 - 0.0 - - - - - - -
01/03:30pm 15.5 SE 4 6 1013.3 - 0.0 - - - - - - -
01/03:00pm 15.7 SSE 4 7 1013.2 - 0.0 - - - - - - -
01/02:30pm 16.1 SSE 5 9 1013.2 - 0.0 - - - - - - -
01/02:00pm 16.0 SSE 5 9 1013.3 - 0.0 - - - - - - -
01/01:30pm 15.7 SSE 6 10 1013.5 - 0.0 - - - - - - -
01/01:00pm 15.6 SSE 5 7 1013.9 - 0.0 - - - - - - -
01/12:30pm 15.4 SSE 4 6 1014.2 - 0.0 - - - - - - -
01/12:00pm 15.2 SSE 5 7 1014.4 - 0.0 - - - - - - -
01/11:30am 15.3 S 6 9 1014.7 - 0.0 - - - - - - -
01/11:00am 15.4 S 6 9 1015.0 - 0.0 - - - - - - -
01/10:30am 15.0 SSW 5 8 1015.1 - 0.0 - - - - - - -
01/10:00am 14.7 SW 5 7 1015.2 - 0.0 - - - - - - -
01/09:30am 14.5 WSW 4 6 1015.2 - 0.0 - - - - - - -
01/09:00am 14.0 WNW 4 7 1015.3 - 0.0 - - - - - - -
01/08:30am 12.9 WNW 3 6 1015.4 - 0.0 - - - - - - -
01/08:00am 11.6 W 4 7 1015.4 - 0.0 - - - - - - -
01/07:30am 10.5 W 4 7 1015.2 - 0.0 - - - - - - -
01/07:00am 9.3 W 4 7 1015.0 - 0.0 - - - - - - -
01/06:30am 7.8 SW 3 4 1014.7 - 0.0 - - - - - - -
01/06:00am 8.0 W 4 6 1014.5 - 0.0 - - - - - - -
01/05:30am 7.8 W 4 5 1014.3 - 0.0 - - - - - - -
01/05:00am 8.0 W 4 5 1014.1 - 0.0 - - - - - - -
01/04:30am 8.4 W 4 5 1014.1 - 0.0 - - - - - - -
01/04:00am 8.5 WNW 3 5 1014.4 - 0.0 - - - - - - -
01/03:30am 8.9 WNW 3 5 1014.4 - 0.0 - - - - - - -
01/03:00am 9.4 WSW 4 6 1014.4 - 0.0 - - - - - - -
01/02:30am 10.2 SW 3 5 1014.5 - 0.0 - - - - - - -
01/02:00am 10.5 WSW 5 7 1014.8 - 0.0 - - - - - - -
01/01:30am 10.1 SW 5 6 1015.1 - 0.0 - - - - - - -
01/01:00am 9.9 SW 4 6 1015.2 - 0.0 - - - - - - -
01/12:30am 10.3 SW 4 6 1015.2 - 0.0 - - - - - - -
01/12:00am 11.3 SW 6 9 1015.4 - 0.0 - - - - - - -
 
Date/Time
EST
Temp

°C
Wind Pressure Rain
since 9am
mm
Weather Cloud Vis
km
Sea
Height
m
Swell
Dir
 
Speed
knots
Gust
knots
hPa Trend Height
m
Period
s
Dir
31/11:30pm 11.3 WSW 5 7 1015.4 - 0.0 - - - - - - -
31/11:00pm 11.4 SW 5 9 1015.4 - 0.0 - - - - - - -
31/10:30pm 12.1 SW 6 8 1015.5 - 0.0 - - - - - - -
31/10:00pm 12.5 WSW 5 8 1015.6 - 0.0 - - - - - - -
31/09:30pm 12.5 SW 6 8 1015.5 - 0.0 - - - - - - -
31/09:00pm 13.2 SSW 7 11 1015.4 - 0.0 - - - - - - -
31/08:30pm 12.7 SSW 6 9 1015.5 - 0.0 - - - - - - -
31/08:00pm 12.5 WSW 4 7 1015.4 - 0.0 - - - - - - -
31/07:30pm 12.6 WSW 4 6 1015.3 - 0.0 - - - - - - -
31/07:00pm 13.4 WSW 4 6 1015.0 - 0.0 - - - - - - -
31/06:30pm 14.6 S 9 15 1014.8 - 0.0 - - - - - - -
31/06:00pm 14.6 S 9 13 1014.5 - 0.0 - - - - - - -
31/05:30pm 14.4 S 10 13 1014.4 - 0.0 - - - - - - -
31/05:00pm 14.5 S 10 13 1014.2 - 0.0 - - - - - - -
31/04:30pm 14.6 S 9 12 1014.1 - 0.0 - - - - - - -
31/04:00pm 15.2 SSE 8 11 1013.9 - 0.0 - - - - - - -
31/03:30pm 15.6 SSE 6 9 1014.1 - 0.0 - - - - - - -
31/03:00pm 15.7 SSE 6 9 1014.2 - 0.0 - - - - - - -
31/02:30pm 16.0 SSE 7 10 1014.5 - 0.0 - - - - - - -
31/02:00pm 15.7 S 8 12 1014.8 - 0.0 - - - - - - -
31/01:30pm 15.8 S 9 12 1015.0 - 0.0 - - - - - - -
31/01:00pm 15.6 S 10 14 1015.3 - 0.0 - - - - - - -
31/12:30pm 15.4 S 12 15 1015.6 - 0.0 - - - - - - -
31/12:00pm 16.0 S 7 11 1016.0 - 0.0 - - - - - - -
31/11:30am 15.4 S 9 12 1016.4 - 0.0 - - - - - - -
31/11:00am 15.2 SSW 8 13 1016.7 - 0.0 - - - - - - -
31/10:30am 14.9 SSW 9 14 1016.9 - 0.0 - - - - - - -
31/10:00am 14.8 SSW 8 13 1017.2 - 0.0 - - - - - - -
31/09:30am 14.2 SSW 7 10 1017.4 - 0.0 - - - - - - -
31/09:00am 13.7 SSW 5 9 1017.5 - 0.0 - - - - - - -
31/08:30am 13.3 WSW 3 6 1017.4 - 0.0 - - - - - - -
31/08:00am 12.5 W 3 5 1017.4 - 0.0 - - - - - - -
31/07:30am 10.8 WSW 4 6 1017.5 - 0.0 - - - - - - -
31/07:00am 8.8 WSW 4 5 1017.4 - 0.0 - - - - - - -
31/06:30am 7.3 WSW 4 6 1017.2 - 0.0 - - - - - - -
31/06:00am 7.2 WSW 5 7 1016.9 - 0.0 - - - - - - -
31/05:30am 7.6 WSW 5 6 1016.9 - 0.0 - - - - - - -
31/05:00am 7.6 WSW 5 6 1016.9 - 0.0 - - - - - - -
31/04:30am 7.6 WSW 3 8 1017.0 - 0.0 - - - - - - -
31/04:00am 7.7 W 4 5 1016.9 - 0.0 - - - - - - -
31/03:30am 7.5 W 4 5 1016.9 - 0.0 - - - - - - -
31/03:00am 7.9 WSW 4 6 1017.3 - 0.0 - - - - - - -
31/02:30am 8.7 SW 4 6 1017.9 - 0.0 - - - - - - -
31/02:00am 9.3 SW 5 8 1018.3 - 0.0 - - - - - - -
31/01:30am 9.3 SW 5 9 1018.6 - 0.0 - - - - - - -
31/01:00am 8.9 SSW 4 6 1018.7 - 0.0 - - - - - - -
31/12:30am 8.2 WSW 1 3 1018.8 - 0.0 - - - - - - -
31/12:00am 8.7 WSW 4 5 1018.9 - 0.0 - - - - - - -
 
Date/Time
EST
Temp

°C
Wind Pressure Rain
since 9am
mm
Weather Cloud Vis
km
Sea
Height
m
Swell
Dir
 
Speed
knots
Gust
knots
hPa Trend Height
m
Period
s
Dir
30/11:30pm 9.4 SW 4 5 1018.9 - 0.0 - - - - - - -
30/11:00pm 9.8 WSW 5 7 1018.9 - 0.0 - - - - - - -
30/10:30pm 10.3 SW 6 9 1019.2 - 0.0 - - - - - - -
30/10:00pm 10.7 SW 7 10 1019.5 - 0.0 - - - - - - -
30/09:30pm 11.0 SW 6 8 1019.5 - 0.0 - - - - - - -
30/09:00pm 11.2 SW 5 8 1019.4 - 0.0 - - - - - - -
30/08:30pm 11.8 SW 7 10 1019.2 - 0.0 - - - - - - -
30/08:00pm 11.9 WSW 5 9 1018.9 - 0.0 - - - - - - -
30/07:30pm 12.9 SW 7 12 1018.6 - 0.0 - - - - - - -
30/07:00pm 13.2 SW 7 11 1018.5 - 0.0 - - - - - - -

Other Formats:

Comma delimited format used in spreadsheet applications
http://www.bom.gov.au/fwo/IDN60701/IDN60701.94938.axf

JavaScript Object Notation format (JSON) in row-major order
http://www.bom.gov.au/fwo/IDN60701/IDN60701.94938.json